Time;durP1;ratioP1;P1;durP2;ratioP2;P2;SDS_P1;SDS_P2;PMS_P1;PMS_P2;Temp;Humidity;BMP_temperature;BMP_pressure;BME280_temperature;BME280_humidity;BME280_pressure;Samples;Min_cycle;Max_cycle;Signal;HPM_P1;HPM_P2
2022/05/02 00:00:02;;;;;;;5.30;4.00;;;15.30;99.90;;;;;;5069424;28;20449;-64
2022/05/02 00:02:29;;;;;;;5.83;4.30;;;15.30;99.90;;;;;;5069107;28;20456;-65
2022/05/02 00:04:56;;;;;;;6.63;4.30;;;15.20;99.90;;;;;;5069478;28;20940;-65
2022/05/02 00:07:24;;;;;;;6.53;4.70;;;15.20;99.90;;;;;;5069311;28;20456;-65
2022/05/02 00:09:52;;;;;;;6.17;4.90;;;15.20;99.90;;;;;;5069204;28;20481;-65
2022/05/02 00:12:19;;;;;;;6.80;4.63;;;15.20;99.90;;;;;;5068856;28;20453;-63
2022/05/02 00:14:46;;;;;;;6.37;5.07;;;15.20;99.90;;;;;;5069042;28;20499;-64
2022/05/02 00:17:13;;;;;;;6.67;4.80;;;15.30;99.90;;;;;;5069507;28;20787;-64
2022/05/02 00:19:40;;;;;;;9.40;6.33;;;15.30;99.90;;;;;;5069322;28;20886;-65
2022/05/02 00:22:07;;;;;;;7.00;5.27;;;15.30;99.90;;;;;;5069021;28;20461;-64
2022/05/02 00:24:37;;;;;;;6.80;5.13;;;15.40;99.90;;;;;;5069086;28;20501;-64
2022/05/02 00:27:05;;;;;;;7.47;5.80;;;15.30;99.90;;;;;;5069160;28;20472;-64
2022/05/02 00:29:32;;;;;;;6.87;5.17;;;15.30;99.90;;;;;;5069124;28;20492;-63
2022/05/02 00:31:59;;;;;;;8.70;5.90;;;15.30;99.90;;;;;;5069105;28;20453;-62
2022/05/02 00:34:26;;;;;;;7.30;5.47;;;15.20;99.90;;;;;;5068939;28;20492;-64
2022/05/02 00:36:53;;;;;;;7.83;6.00;;;15.20;99.90;;;;;;5068817;28;20449;-64
2022/05/02 00:39:20;;;;;;;7.63;5.63;;;15.20;99.90;;;;;;5068924;28;20471;-62
2022/05/02 00:41:48;;;;;;;8.27;5.83;;;15.10;99.90;;;;;;5068977;28;20449;-64
2022/05/02 00:44:15;;;;;;;7.30;5.30;;;15.10;99.90;;;;;;5069079;28;20536;-63
2022/05/02 00:46:43;;;;;;;7.80;5.63;;;15.10;99.90;;;;;;5069010;28;20449;-64
2022/05/02 00:49:10;;;;;;;6.63;5.20;;;15.00;99.90;;;;;;5068884;28;20477;-64
2022/05/02 00:51:37;;;;;;;9.90;5.90;;;14.90;99.90;;;;;;5068524;28;20493;-63
2022/05/02 00:54:04;;;;;;;6.30;4.90;;;14.90;99.90;;;;;;5068886;28;20492;-65
2022/05/02 00:56:32;;;;;;;6.97;5.30;;;14.80;99.90;;;;;;5068969;28;20452;-62
2022/05/02 00:59:01;;;;;;;6.20;4.90;;;14.90;99.90;;;;;;5068976;28;20465;-63
2022/05/02 01:01:28;;;;;;;6.57;4.93;;;14.90;99.90;;;;;;5069098;28;20452;-63
2022/05/02 01:03:55;;;;;;;7.00;4.60;;;14.90;99.90;;;;;;5068636;28;20449;-62
2022/05/02 01:09:07;;;;;;;10.20;5.10;;;14.90;99.90;;;;;;5068809;28;20497;-65
2022/05/02 01:11:34;;;;;;;5.50;4.73;;;15.00;99.90;;;;;;5068853;28;20805;-64
2022/05/02 01:14:02;;;;;;;6.60;4.30;;;15.00;99.90;;;;;;5068473;28;20492;-64
2022/05/02 01:16:30;;;;;;;5.73;4.03;;;15.10;99.90;;;;;;5068645;28;20983;-64
2022/05/02 01:18:59;;;;;;;7.90;4.70;;;15.10;99.90;;;;;;5068428;28;20476;-65
2022/05/02 01:21:29;;;;;;;5.60;4.37;;;15.10;99.90;;;;;;5068508;28;20806;-63
2022/05/02 01:23:59;;;;;;;6.37;4.37;;;15.10;99.90;;;;;;5070699;28;20484;-63
2022/05/02 01:26:26;;;;;;;6.93;4.10;;;15.10;99.90;;;;;;5072112;28;20464;-64
2022/05/02 01:28:55;;;;;;;5.43;3.87;;;15.10;99.90;;;;;;5071786;28;20472;-64
2022/05/02 01:31:22;;;;;;;8.10;4.00;;;15.10;99.90;;;;;;5071983;28;20453;-64
2022/05/02 01:33:50;;;;;;;6.00;3.93;;;15.00;99.90;;;;;;5071950;28;20449;-63
2022/05/02 01:36:19;;;;;;;6.23;4.67;;;15.00;99.90;;;;;;5071995;28;20453;-64
2022/05/02 01:38:47;;;;;;;6.13;4.67;;;14.80;99.90;;;;;;5072053;28;20469;-63
2022/05/02 01:41:14;;;;;;;6.40;4.07;;;14.80;99.90;;;;;;5071979;28;20455;-63
2022/05/02 01:43:42;;;;;;;6.97;3.90;;;14.80;99.90;;;;;;5071780;28;20457;-63
2022/05/02 01:46:11;;;;;;;5.53;4.33;;;14.70;99.90;;;;;;5071731;28;20935;-63
2022/05/02 01:48:38;;;;;;;6.10;4.10;;;14.70;99.90;;;;;;5071594;28;20469;-63
2022/05/02 01:51:05;;;;;;;6.30;4.77;;;14.70;99.90;;;;;;5071424;28;20491;-64
2022/05/02 01:53:32;;;;;;;7.13;4.20;;;14.70;99.90;;;;;;5071694;28;20506;-64
2022/05/02 01:56:01;;;;;;;6.97;4.57;;;14.50;99.90;;;;;;5071249;28;20489;-62
2022/05/02 01:58:28;;;;;;;7.40;4.93;;;14.50;99.90;;;;;;5071630;28;20606;-64
2022/05/02 02:00:55;;;;;;;6.43;4.57;;;14.50;99.90;;;;;;5071194;28;20445;-62
2022/05/02 02:03:22;;;;;;;6.50;4.10;;;14.50;99.90;;;;;;5071157;28;20449;-62
2022/05/02 02:05:51;;;;;;;6.57;4.53;;;14.60;99.90;;;;;;5071715;28;20453;-64
2022/05/02 02:08:21;;;;;;;6.17;4.63;;;14.60;99.90;;;;;;5071365;28;20472;-63
2022/05/02 02:10:49;;;;;;;5.80;3.97;;;14.60;99.90;;;;;;5071320;28;20460;-63
2022/05/02 02:13:18;;;;;;;6.57;4.53;;;14.50;99.90;;;;;;5071184;28;20843;-62
2022/05/02 02:15:45;;;;;;;7.20;4.90;;;14.60;99.90;;;;;;5071422;28;20488;-63
2022/05/02 02:18:12;;;;;;;7.80;5.40;;;14.50;99.90;;;;;;5070942;28;20571;-64
2022/05/02 02:20:43;;;;;;;6.30;4.30;;;14.50;99.90;;;;;;5071391;28;20448;-65
2022/05/02 02:23:10;;;;;;;6.30;4.60;;;14.50;99.90;;;;;;5071540;28;20785;-63
2022/05/02 02:25:38;;;;;;;8.93;4.93;;;14.40;99.90;;;;;;5070994;28;20544;-64
2022/05/02 02:28:06;;;;;;;8.03;4.80;;;14.40;99.90;;;;;;5071011;28;20476;-63
2022/05/02 02:30:35;;;;;;;6.30;4.97;;;14.50;99.90;;;;;;5070966;28;20453;-64
2022/05/02 02:33:03;;;;;;;7.33;5.03;;;14.50;99.90;;;;;;5070925;28;20775;-63
2022/05/02 02:35:30;;;;;;;8.37;5.50;;;14.40;99.90;;;;;;5070239;28;20981;-64
2022/05/02 02:37:58;;;;;;;7.63;5.33;;;14.40;99.90;;;;;;5070611;28;20473;-63
2022/05/02 02:40:25;;;;;;;7.87;5.60;;;14.50;99.90;;;;;;5070741;28;20449;-64
2022/05/02 02:42:52;;;;;;;7.33;4.73;;;14.50;99.90;;;;;;5070626;28;20855;-64
2022/05/02 02:45:19;;;;;;;7.47;6.20;;;14.60;99.90;;;;;;5070761;28;20921;-63
2022/05/02 02:47:48;;;;;;;6.80;5.70;;;14.50;99.90;;;;;;5070511;28;20445;-62
2022/05/02 02:50:15;;;;;;;7.83;6.30;;;14.40;99.90;;;;;;5070100;28;20456;-63
2022/05/02 02:52:42;;;;;;;6.50;5.47;;;14.50;99.90;;;;;;5070695;28;20457;-63
2022/05/02 02:55:10;;;;;;;9.07;6.57;;;14.40;99.90;;;;;;5070447;28;20480;-63
2022/05/02 02:57:37;;;;;;;7.93;6.30;;;14.40;99.90;;;;;;5070544;28;20914;-63
2022/05/02 03:00:06;;;;;;;7.70;6.73;;;14.40;99.90;;;;;;5070031;28;20522;-65
2022/05/02 03:02:34;;;;;;;8.53;6.47;;;14.40;99.90;;;;;;5070366;28;20452;-63
2022/05/02 03:07:47;;;;;;;10.00;5.87;;;14.40;99.90;;;;;;5070240;28;20436;-63
2022/05/02 03:10:14;;;;;;;7.80;6.13;;;14.30;99.90;;;;;;5070315;28;20460;-62
2022/05/02 03:12:42;;;;;;;8.00;6.60;;;14.40;99.90;;;;;;5070321;28;20453;-64
2022/05/02 03:15:10;;;;;;;7.10;6.00;;;14.30;99.90;;;;;;5070079;28;20515;-64
2022/05/02 03:17:37;;;;;;;8.17;6.53;;;14.30;99.90;;;;;;5070140;28;20453;-63
2022/05/02 03:20:06;;;;;;;9.80;6.67;;;14.30;99.90;;;;;;5070024;28;20963;-62
2022/05/02 03:22:33;;;;;;;10.77;7.17;;;14.40;99.90;;;;;;5069540;28;20515;-62
2022/05/02 03:25:00;;;;;;;8.70;6.87;;;14.30;99.90;;;;;;5069948;28;20454;-63
2022/05/02 03:27:28;;;;;;;8.40;6.70;;;14.30;99.90;;;;;;5069634;28;20518;-64
2022/05/02 03:29:55;;;;;;;8.90;7.10;;;14.20;99.90;;;;;;5069848;28;20801;-63
2022/05/02 03:32:22;;;;;;;10.67;7.50;;;14.20;99.90;;;;;;5069829;28;20880;-63
2022/05/02 03:34:49;;;;;;;8.60;6.80;;;14.20;99.90;;;;;;5069883;28;20521;-63
2022/05/02 03:37:17;;;;;;;7.80;6.23;;;14.00;99.90;;;;;;5069685;28;20841;-63
2022/05/02 03:39:44;;;;;;;8.53;6.47;;;14.10;99.90;;;;;;5069712;28;20560;-64
2022/05/02 03:42:11;;;;;;;10.40;7.10;;;14.10;99.90;;;;;;5069514;28;20460;-63
2022/05/02 03:44:38;;;;;;;9.73;7.23;;;14.10;99.90;;;;;;5069356;28;20984;-64
2022/05/02 03:47:06;;;;;;;8.03;6.30;;;14.10;99.90;;;;;;5068796;28;20457;-64
2022/05/02 03:49:33;;;;;;;8.40;5.80;;;14.10;99.90;;;;;;5069392;28;20472;-63
2022/05/02 03:52:00;;;;;;;8.13;5.90;;;14.00;99.90;;;;;;5069499;28;20480;-62
2022/05/02 03:54:29;;;;;;;8.50;6.13;;;14.00;99.90;;;;;;5069567;28;20524;-63
2022/05/02 03:56:56;;;;;;;6.70;4.67;;;14.10;99.90;;;;;;5069529;28;20456;-62
2022/05/02 03:59:23;;;;;;;8.50;6.33;;;14.00;99.90;;;;;;5069117;28;20576;-64
2022/05/02 04:01:50;;;;;;;9.47;6.00;;;13.90;99.90;;;;;;5069712;28;20504;-63
2022/05/02 04:04:17;;;;;;;8.10;6.30;;;13.90;99.90;;;;;;5069465;28;20779;-63
2022/05/02 04:06:44;;;;;;;9.63;6.20;;;14.00;99.90;;;;;;5069201;28;20510;-64
2022/05/02 04:09:11;;;;;;;8.90;5.73;;;13.90;99.90;;;;;;5069532;28;20874;-62
2022/05/02 04:11:39;;;;;;;10.20;5.90;;;13.90;99.90;;;;;;5069308;28;20464;-65
2022/05/02 04:14:06;;;;;;;11.50;6.23;;;13.80;99.90;;;;;;5069288;28;20795;-63
2022/05/02 04:16:33;;;;;;;8.10;5.83;;;13.80;99.90;;;;;;5069330;28;20537;-64
2022/05/02 04:19:01;;;;;;;8.00;5.87;;;13.80;99.90;;;;;;5069362;28;20472;-64
2022/05/02 04:21:28;;;;;;;8.43;6.90;;;13.90;99.90;;;;;;5069454;28;20452;-64
2022/05/02 04:23:55;;;;;;;6.40;4.57;;;13.90;99.90;;;;;;5069198;28;20449;-63
2022/05/02 04:26:22;;;;;;;8.40;5.10;;;14.00;99.90;;;;;;5069139;28;20445;-64
2022/05/02 04:28:50;;;;;;;8.27;5.27;;;14.00;99.90;;;;;;5069342;28;20580;-64
2022/05/02 04:31:17;;;;;;;7.03;5.13;;;14.10;99.90;;;;;;5069301;28;20457;-64
2022/05/02 04:33:45;;;;;;;7.73;5.23;;;14.10;99.90;;;;;;5069319;28;20948;-63
2022/05/02 04:36:12;;;;;;;6.50;4.97;;;14.10;99.90;;;;;;5069282;28;21536;-64
2022/05/02 04:38:39;;;;;;;6.63;5.40;;;14.20;99.90;;;;;;5069128;28;20469;-64
2022/05/02 04:41:06;;;;;;;9.97;6.80;;;14.20;99.90;;;;;;5069028;28;20457;-62
2022/05/02 04:43:34;;;;;;;10.47;7.60;;;14.30;99.90;;;;;;5069112;28;20456;-63
2022/05/02 04:46:02;;;;;;;11.23;8.33;;;14.20;99.90;;;;;;5069052;28;20476;-63
2022/05/02 04:48:29;;;;;;;9.07;7.27;;;14.30;99.90;;;;;;5068957;28;20889;-65
2022/05/02 04:50:56;;;;;;;10.30;7.27;;;14.40;99.90;;;;;;5068565;28;20487;-65
2022/05/02 04:53:23;;;;;;;8.80;6.70;;;14.40;99.90;;;;;;5069082;28;20461;-67
2022/05/02 04:55:50;;;;;;;8.70;6.27;;;14.50;99.90;;;;;;5069076;28;20484;-64
2022/05/02 04:58:17;;;;;;;8.63;6.40;;;14.60;99.90;;;;;;5071526;28;20518;-63
2022/05/02 05:00:44;;;;;;;11.03;7.60;;;14.60;99.90;;;;;;5072672;28;20522;-63
2022/05/02 05:03:13;;;;;;;15.30;6.73;;;14.70;99.90;;;;;;5072158;28;20452;-64
2022/05/02 05:05:40;;;;;;;9.27;5.67;;;14.80;99.90;;;;;;5072632;28;20451;-68
2022/05/02 05:08:08;;;;;;;9.80;6.37;;;14.90;99.90;;;;;;5072605;28;20476;-67
2022/05/02 05:10:43;;;;;;;8.77;5.50;;;15.00;99.90;;;;;;5072446;28;20531;-67
2022/05/02 05:13:16;;;;;;;8.67;6.53;;;15.10;99.90;;;;;;5072732;28;20444;-67
2022/05/02 05:16:20;;;;;;;9.33;5.93;;;15.00;99.90;;;;;;5072584;28;20507;-67
2022/05/02 05:19:01;;;;;;;15.33;6.27;;;15.10;99.90;;;;;;5072486;28;20468;-66
2022/05/02 05:21:39;;;;;;;9.83;5.70;;;15.20;99.90;;;;;;5072365;28;20455;-64
2022/05/02 05:24:30;;;;;;;7.00;5.40;;;15.20;99.90;;;;;;5072490;28;20449;-66
2022/05/02 05:27:08;;;;;;;7.67;6.47;;;15.10;99.90;;;;;;5072221;28;20452;-70
2022/05/02 05:29:44;;;;;;;8.03;6.27;;;15.00;99.90;;;;;;5071962;28;20903;-69
2022/05/02 05:32:28;;;;;;;7.33;5.63;;;15.00;99.90;;;;;;5072246;28;20457;-68
2022/05/02 05:35:04;;;;;;;8.73;6.10;;;15.10;99.90;;;;;;5071894;28;20452;-66
2022/05/02 05:38:01;;;;;;;8.50;6.77;;;15.10;99.90;;;;;;5071883;28;20803;-66
2022/05/02 05:40:34;;;;;;;8.33;6.53;;;15.20;99.90;;;;;;5072126;28;20580;-66
2022/05/02 05:43:24;;;;;;;8.23;5.63;;;15.20;99.90;;;;;;5071376;28;20453;-66
2022/05/02 05:46:26;;;;;;;8.43;5.70;;;15.20;99.90;;;;;;5071846;28;20517;-67
2022/05/02 05:49:09;;;;;;;9.00;6.13;;;15.10;99.90;;;;;;5071902;28;20464;-65
2022/05/02 05:51:41;;;;;;;7.00;5.47;;;15.40;99.90;;;;;;5071461;28;20959;-67
2022/05/02 05:54:26;;;;;;;8.47;6.03;;;15.60;99.90;;;;;;5071789;28;20445;-64
2022/05/02 05:57:03;;;;;;;9.00;5.63;;;15.60;99.90;;;;;;5071868;28;20511;-72
2022/05/02 05:59:44;;;;;;;8.67;6.30;;;15.70;99.90;;;;;;5071817;28;20555;-68
2022/05/02 06:02:18;;;;;;;7.00;4.77;;;15.80;99.90;;;;;;5071591;28;20449;-68
2022/05/02 06:04:50;;;;;;;7.50;5.10;;;15.90;99.90;;;;;;5071536;28;20456;-67
2022/05/02 06:07:20;;;;;;;9.53;5.80;;;15.90;99.90;;;;;;5071473;28;20457;-66
2022/05/02 06:09:49;;;;;;;6.73;5.03;;;15.90;99.90;;;;;;5070239;28;20480;-68
2022/05/02 06:12:17;;;;;;;7.70;5.60;;;16.00;99.90;;;;;;5071309;28;20832;-70
2022/05/02 06:20:21;;;;;;;6.00;4.40;;;16.30;99.90;;;;;;5071457;28;20436;-70
2022/05/02 06:22:50;;;;;;;6.97;4.10;;;16.50;99.90;;;;;;5071132;28;20453;-68
2022/05/02 06:25:20;;;;;;;6.90;5.00;;;16.50;99.90;;;;;;5071129;28;20566;-68
2022/05/02 06:27:49;;;;;;;8.57;5.27;;;16.70;99.90;;;;;;5071095;28;20804;-64
2022/05/02 06:30:17;;;;;;;10.30;5.63;;;16.80;99.90;;;;;;5071170;28;20556;-64
2022/05/02 06:32:45;;;;;;;8.33;5.80;;;16.80;99.90;;;;;;5071175;28;20468;-63
2022/05/02 06:35:14;;;;;;;7.20;6.20;;;16.90;99.90;;;;;;5070799;28;20459;-63
2022/05/02 06:37:50;;;;;;;9.67;6.43;;;16.80;99.90;;;;;;5070792;28;20808;-62
2022/05/02 06:40:28;;;;;;;10.27;5.87;;;16.90;99.90;;;;;;5070837;28;20449;-68
2022/05/02 06:43:11;;;;;;;8.53;6.10;;;17.00;99.90;;;;;;5070890;28;20937;-63
2022/05/02 06:45:46;;;;;;;8.10;5.70;;;17.30;99.90;;;;;;5070721;28;20456;-62
2022/05/02 06:48:41;;;;;;;8.17;6.40;;;17.40;99.90;;;;;;5070615;28;20526;-63
2022/05/02 06:51:14;;;;;;;7.80;6.87;;;17.30;99.90;;;;;;5070328;28;20488;-64
2022/05/02 06:54:09;;;;;;;7.40;6.63;;;17.20;99.90;;;;;;5070621;28;20455;-63
2022/05/02 06:56:44;;;;;;;8.40;7.43;;;16.90;99.90;;;;;;5070306;28;20534;-70
2022/05/02 06:59:35;;;;;;;11.10;8.70;;;17.00;99.90;;;;;;5070444;28;20499;-70
2022/05/02 07:02:20;;;;;;;11.43;9.10;;;17.30;99.90;;;;;;5070030;28;20502;-67
2022/05/02 07:04:51;;;;;;;9.87;7.97;;;17.50;99.90;;;;;;5070312;28;20473;-66
2022/05/02 07:07:52;;;;;;;9.03;7.37;;;17.60;99.90;;;;;;5069822;28;20987;-75
2022/05/02 07:10:22;;;;;;;9.50;7.80;;;17.40;99.90;;;;;;5069051;28;21033;-72
2022/05/02 07:13:00;;;;;;;11.30;6.53;;;17.50;99.90;;;;;;5070033;28;20532;-66
2022/05/02 07:15:37;;;;;;;7.27;5.33;;;17.70;99.90;;;;;;5070142;28;20492;-66
2022/05/02 07:18:06;;;;;;;10.90;6.60;;;17.90;99.90;;;;;;5070135;28;20534;-67
2022/05/02 07:20:54;;;;;;;11.97;7.40;;;18.20;99.90;;;;;;5069213;28;20461;-66
2022/05/02 07:23:50;;;;;;;9.57;5.93;;;18.40;99.90;;;;;;5070057;28;20505;-67
2022/05/02 07:26:20;;;;;;;7.00;5.43;;;18.70;99.90;;;;;;5070010;28;20891;-65
2022/05/02 07:28:50;;;;;;;7.00;4.97;;;18.90;99.90;;;;;;5069882;28;20563;-64
2022/05/02 07:31:20;;;;;;;6.43;5.03;;;19.10;99.30;;;;;;5070097;28;20445;-65
2022/05/02 07:33:49;;;;;;;7.63;4.80;;;19.00;98.00;;;;;;5069754;28;20457;-64
2022/05/02 07:36:18;;;;;;;6.20;5.07;;;19.20;97.90;;;;;;5069418;28;20488;-63
2022/05/02 07:38:47;;;;;;;8.97;5.87;;;19.30;97.80;;;;;;5069561;28;20469;-61
2022/05/02 07:41:25;;;;;;;8.63;5.70;;;19.30;96.20;;;;;;5069381;28;20544;-63
2022/05/02 07:43:59;;;;;;;7.33;5.43;;;19.10;96.20;;;;;;5069125;28;20547;-64
2022/05/02 07:46:29;;;;;;;7.63;5.33;;;19.20;96.30;;;;;;5069512;28;20544;-64
2022/05/02 07:48:58;;;;;;;7.37;5.40;;;19.30;96.30;;;;;;5069550;28;20505;-64
2022/05/02 07:51:26;;;;;;;6.70;5.20;;;19.40;95.30;;;;;;5069154;28;20913;-62
2022/05/02 07:53:53;;;;;;;6.97;6.23;;;19.40;95.00;;;;;;5069590;28;20453;-64
2022/05/02 07:56:24;;;;;;;12.30;6.07;;;19.30;95.00;;;;;;5069465;28;20890;-62
2022/05/02 07:58:55;;;;;;;9.00;6.50;;;19.20;94.10;;;;;;5069447;28;20476;-71
2022/05/02 08:01:23;;;;;;;10.83;7.57;;;19.00;94.40;;;;;;5069515;28;20468;-66
2022/05/02 08:03:51;;;;;;;9.67;6.97;;;19.10;94.20;;;;;;5069273;28;20488;-62
2022/05/02 08:06:50;;;;;;;7.83;6.47;;;19.00;94.70;;;;;;5069466;28;20445;-63
2022/05/02 08:09:38;;;;;;;9.07;6.83;;;18.90;93.90;;;;;;5069363;28;20469;-71
2022/05/02 08:12:18;;;;;;;12.23;7.93;;;18.70;93.50;;;;;;5069265;28;20979;-73
2022/05/02 08:14:58;;;;;;;8.67;6.60;;;18.70;94.10;;;;;;5069375;28;20457;-62
2022/05/02 08:17:37;;;;;;;9.97;6.33;;;18.50;93.40;;;;;;5069021;28;21019;-71
2022/05/02 08:20:12;;;;;;;8.43;6.77;;;18.00;94.10;;;;;;5069172;28;20578;-75
2022/05/02 08:28:33;;;;;;;8.30;7.50;;;18.80;94.60;;;;;;5068559;28;20738;-70
2022/05/02 08:31:12;;;;;;;9.70;8.10;;;19.10;92.60;;;;;;5069061;28;20488;-63
2022/05/02 08:33:47;;;;;;;9.50;7.63;;;19.60;91.10;;;;;;5072734;28;20937;-65
2022/05/02 08:36:24;;;;;;;9.57;8.23;;;19.70;90.80;;;;;;5072951;28;21163;-63
2022/05/02 08:38:56;;;;;;;11.30;7.80;;;19.70;90.20;;;;;;5073063;28;20468;-65
2022/05/02 08:41:58;;;;;;;8.90;8.00;;;19.60;87.70;;;;;;5073037;28;20449;-64
2022/05/02 08:45:01;;;;;;;8.67;7.70;;;19.10;88.50;;;;;;5072687;28;20480;-64
2022/05/02 08:48:24;;;;;;;13.00;8.80;;;19.10;89.80;;;;;;5073035;28;20440;-64
2022/05/02 08:51:36;;;;;;;10.70;8.73;;;18.80;89.80;;;;;;5072526;28;20480;-63
2022/05/02 08:54:31;;;;;;;10.10;7.93;;;18.60;90.40;;;;;;5057299;28;20953;-63
2022/05/02 08:57:28;;;;;;;10.83;8.70;;;18.90;89.30;;;;;;5072366;28;20631;-67
2022/05/02 09:00:06;;;;;;;9.47;8.47;;;18.90;89.90;;;;;;5070749;28;20473;-63
2022/05/02 09:06:22;;;;;;;9.03;8.10;;;18.40;90.40;;;;;;5106598;27;20971;-63
2022/05/02 09:09:23;;;;;;;10.20;7.40;;;18.80;90.20;;;;;;5107239;28;20828;-62
2022/05/02 09:12:38;;;;;;;8.57;7.67;;;18.80;89.60;;;;;;5107035;28;20459;-64
2022/05/02 09:15:13;;;;;;;8.00;7.00;;;18.90;87.30;;;;;;5025341;28;20446;-62
2022/05/02 09:18:17;;;;;;;9.00;7.70;;;18.80;87.20;;;;;;5043535;28;20445;-63
2022/05/02 09:20:59;;;;;;;6.60;5.20;;;19.30;86.60;;;;;;5091148;28;20454;-63
2022/05/02 09:24:05;;;;;;;9.07;5.37;;;19.60;78.20;;;;;;5106686;28;20451;-64
2022/05/02 09:27:11;;;;;;;6.87;4.90;;;19.40;78.00;;;;;;5106839;28;20447;-63
2022/05/02 09:30:15;;;;;;;6.30;5.37;;;19.30;75.60;;;;;;5106917;28;20467;-63
2022/05/02 09:32:47;;;;;;;8.97;5.60;;;19.30;74.10;;;;;;5106860;28;20805;-64
2022/05/02 09:35:19;;;;;;;6.10;4.83;;;19.70;74.20;;;;;;5106522;28;20928;-62
2022/05/02 09:37:57;;;;;;;6.43;5.30;;;19.80;74.10;;;;;;5106920;28;20992;-62
2022/05/02 09:40:35;;;;;;;5.67;4.70;;;19.60;71.30;;;;;;5106614;28;20512;-64
2022/05/02 09:43:25;;;;;;;6.87;5.13;;;19.30;71.40;;;;;;5106247;28;20443;-64
2022/05/02 09:52:18;;;;;;;5.63;4.20;;;19.10;67.70;;;;;;5106396;28;21214;-63
2022/05/02 09:58:33;;;;;;;7.77;5.40;;;18.90;67.70;;;;;;5098879;28;21016;-64
2022/05/02 10:01:11;;;;;;;6.83;4.50;;;18.50;67.40;;;;;;5106302;28;20451;-62
2022/05/02 10:03:54;;;;;;;7.00;5.27;;;18.50;69.70;;;;;;5105681;28;20558;-62
2022/05/02 10:06:30;;;;;;;6.33;3.90;;;18.80;70.10;;;;;;5105619;28;20455;-61
2022/05/02 10:09:03;;;;;;;11.60;4.47;;;19.20;65.80;;;;;;5105907;28;20466;-63
2022/05/02 10:11:50;;;;;;;6.40;4.43;;;19.30;67.30;;;;;;5106059;28;20472;-66
2022/05/02 10:14:44;;;;;;;6.00;4.40;;;19.30;66.90;;;;;;5105687;28;20534;-63
2022/05/02 10:17:13;;;;;;;9.00;5.00;;;19.30;67.70;;;;;;5092273;28;20459;-64
2022/05/02 10:20:05;;;;;;;6.80;5.50;;;19.60;70.30;;;;;;5092474;28;20933;-64
2022/05/02 10:22:44;;;;;;;5.07;4.57;;;19.60;66.40;;;;;;5089468;28;20851;-65
2022/05/02 10:25:14;;;;;;;6.40;5.20;;;19.40;66.90;;;;;;5092210;28;20828;-65
2022/05/02 10:28:09;;;;;;;6.90;4.77;;;19.30;66.90;;;;;;5091616;28;20521;-63
2022/05/02 10:30:50;;;;;;;6.30;5.70;;;19.40;64.50;;;;;;5063371;28;20452;-62
2022/05/02 10:33:36;;;;;;;6.27;4.60;;;19.00;67.60;;;;;;5091813;28;20990;-64
2022/05/02 10:36:05;;;;;;;7.00;3.77;;;19.20;67.70;;;;;;5092337;28;20468;-62
2022/05/02 10:38:41;;;;;;;6.60;3.93;;;19.40;64.90;;;;;;5091678;28;20463;-62
2022/05/02 10:41:16;;;;;;;5.87;3.90;;;19.70;64.10;;;;;;5092095;28;20450;-64
2022/05/02 10:43:50;;;;;;;5.00;3.63;;;19.80;60.50;;;;;;5091950;28;20517;-65
2022/05/02 10:46:19;;;;;;;8.50;3.93;;;20.10;61.00;;;;;;5091894;28;20535;-63
2022/05/02 10:48:52;;;;;;;6.10;3.93;;;19.80;61.60;;;;;;5091897;28;21284;-64
2022/05/02 10:51:42;;;;;;;6.30;3.90;;;19.60;63.30;;;;;;5091834;28;20542;-64
2022/05/02 10:54:10;;;;;;;5.63;3.60;;;19.90;64.50;;;;;;5091688;28;20955;-65
2022/05/02 10:56:43;;;;;;;5.00;3.50;;;20.10;63.90;;;;;;5091717;28;20485;-64
2022/05/02 10:59:13;;;;;;;5.13;3.30;;;20.40;63.50;;;;;;5091658;28;20537;-64
2022/05/02 11:02:20;;;;;;;5.10;3.60;;;20.70;62.50;;;;;;5091808;28;20462;-63
2022/05/02 11:05:10;;;;;;;5.07;3.33;;;21.10;60.40;;;;;;5085599;28;20499;-65
2022/05/02 11:07:47;;;;;;;5.93;3.63;;;21.30;60.00;;;;;;5071522;28;20449;-67
2022/05/02 11:10:18;;;;;;;5.37;3.23;;;21.20;60.90;;;;;;5070526;28;20514;-66
2022/05/02 11:12:47;;;;;;;5.70;3.80;;;21.30;60.10;;;;;;5068542;28;20457;-70
2022/05/02 11:15:19;;;;;;;6.03;4.17;;;21.40;60.60;;;;;;5070275;28;20934;-65
2022/05/02 11:18:04;;;;;;;5.27;3.73;;;21.50;62.40;;;;;;5071027;28;20456;-65
2022/05/02 11:20:42;;;;;;;5.20;3.60;;;21.60;60.90;;;;;;5071063;28;20453;-64
2022/05/02 11:23:37;;;;;;;6.33;3.80;;;21.50;60.10;;;;;;5070888;28;20515;-64
2022/05/02 11:26:17;;;;;;;5.50;4.37;;;21.00;61.70;;;;;;5070696;28;20521;-63
2022/05/02 11:29:06;;;;;;;8.47;4.63;;;21.10;64.40;;;;;;5070006;28;21012;-63
2022/05/02 11:31:40;;;;;;;5.40;3.60;;;21.20;65.60;;;;;;5070573;28;20567;-65
2022/05/02 11:34:23;;;;;;;5.70;3.57;;;21.30;62.80;;;;;;5070587;28;20543;-64
2022/05/02 11:36:54;;;;;;;4.80;3.60;;;21.20;62.50;;;;;;5070771;28;20449;-65
2022/05/02 11:39:27;;;;;;;5.87;4.27;;;21.00;65.00;;;;;;5070641;28;20997;-64
2022/05/02 11:41:59;;;;;;;4.90;3.73;;;20.90;65.10;;;;;;5070423;28;20473;-63
2022/05/02 11:44:33;;;;;;;8.53;4.00;;;20.70;66.60;;;;;;5070346;28;20485;-65
2022/05/02 11:47:10;;;;;;;5.93;3.90;;;20.70;65.40;;;;;;5070456;28;20480;-65
2022/05/02 11:49:53;;;;;;;6.23;4.00;;;20.40;64.40;;;;;;5070492;28;20472;-66
2022/05/02 11:52:30;;;;;;;5.13;3.67;;;20.00;66.10;;;;;;5070191;28;21008;-64
2022/05/02 11:54:58;;;;;;;5.37;4.30;;;19.90;68.80;;;;;;5070325;28;20440;-65
2022/05/02 11:57:29;;;;;;;6.23;4.27;;;20.00;69.30;;;;;;5070324;28;20813;-63
2022/05/02 12:00:05;;;;;;;6.43;4.00;;;20.00;68.90;;;;;;5070265;28;20523;-64
2022/05/02 12:02:48;;;;;;;6.30;4.50;;;19.80;65.40;;;;;;5070064;28;20452;-63
2022/05/02 12:05:24;;;;;;;10.37;4.57;;;19.70;64.70;;;;;;5069692;28;20501;-62
2022/05/02 12:07:53;;;;;;;7.10;4.20;;;19.80;66.60;;;;;;5070134;28;20463;-63
2022/05/02 12:10:21;;;;;;;5.63;4.33;;;19.90;65.60;;;;;;5070194;28;20449;-66
2022/05/02 12:12:50;;;;;;;7.72;4.25;;;19.70;64.90;;;;;;5069853;28;20524;-66
2022/05/02 12:15:18;;;;;;;6.07;4.17;;;19.60;65.00;;;;;;5069547;28;20614;-63
2022/05/02 12:17:59;;;;;;;6.47;4.93;;;19.50;65.30;;;;;;5069570;28;20456;-63
2022/05/02 12:20:29;;;;;;;5.47;4.30;;;19.30;65.70;;;;;;5069734;28;20460;-64
2022/05/02 12:23:06;;;;;;;7.20;4.93;;;19.30;65.20;;;;;;5069892;28;20499;-63
2022/05/02 12:25:34;;;;;;;5.83;5.10;;;19.30;66.20;;;;;;5069465;28;21000;-64
2022/05/02 12:28:03;;;;;;;7.17;5.10;;;19.10;66.50;;;;;;5069733;28;20469;-63
2022/05/02 12:30:31;;;;;;;5.20;4.43;;;19.10;66.60;;;;;;5069708;28;20507;-64
2022/05/02 12:33:05;;;;;;;6.50;4.50;;;19.10;67.20;;;;;;5069766;28;20453;-64
2022/05/02 12:35:37;;;;;;;8.57;4.30;;;19.00;66.80;;;;;;5069684;28;20536;-62
2022/05/02 12:38:28;;;;;;;6.83;4.07;;;19.00;67.80;;;;;;5069047;28;20469;-64
2022/05/02 12:41:02;;;;;;;5.30;3.30;;;18.90;67.40;;;;;;5065670;28;20460;-62
2022/05/02 12:43:43;;;;;;;5.53;4.00;;;18.90;65.40;;;;;;5069647;28;20451;-66
2022/05/02 12:46:11;;;;;;;6.43;4.00;;;18.80;66.00;;;;;;5069692;28;21249;-64
2022/05/02 12:48:42;;;;;;;6.60;4.00;;;18.80;66.70;;;;;;5069429;28;20480;-63
2022/05/02 12:51:16;;;;;;;5.57;4.20;;;19.00;67.70;;;;;;5069379;28;20445;-63
2022/05/02 12:56:28;;;;;;;8.30;4.10;;;18.90;68.60;;;;;;5069569;28;20424;-69
2022/05/02 13:02:00;;;;;;;5.63;3.83;;;18.80;67.50;;;;;;5026569;28;20526;-64
2022/05/02 13:04:29;;;;;;;7.23;4.80;;;18.80;67.80;;;;;;5059714;28;20484;-63
2022/05/02 13:06:59;;;;;;;8.53;3.80;;;18.80;68.80;;;;;;5069350;28;20517;-63
2022/05/02 13:09:37;;;;;;;5.47;4.00;;;18.80;69.10;;;;;;5069145;28;20559;-64
2022/05/02 13:12:10;;;;;;;6.30;4.43;;;18.90;69.40;;;;;;5069167;28;20540;-64
2022/05/02 13:14:41;;;;;;;5.50;4.07;;;18.90;70.10;;;;;;5069467;28;20446;-64
2022/05/02 13:17:13;;;;;;;5.20;3.90;;;19.00;70.30;;;;;;5068863;28;20445;-63
2022/05/02 13:19:43;;;;;;;5.80;3.70;;;18.90;70.00;;;;;;5069028;28;20556;-64
2022/05/02 13:22:10;;;;;;;6.03;4.00;;;18.80;69.10;;;;;;5069137;28;20965;-65
2022/05/02 13:24:50;;;;;;;5.40;3.67;;;18.70;67.90;;;;;;5069149;28;20949;-64
2022/05/02 13:27:24;;;;;;;7.50;3.77;;;18.70;68.50;;;;;;5069309;28;20453;-65
2022/05/02 13:30:02;;;;;;;7.03;3.70;;;18.70;67.20;;;;;;5069220;28;20481;-65
2022/05/02 13:32:34;;;;;;;5.00;3.77;;;18.70;67.20;;;;;;5069071;28;20472;-66
2022/05/02 13:35:11;;;;;;;5.10;3.50;;;18.80;69.20;;;;;;5068890;28;20938;-64
2022/05/02 13:37:53;;;;;;;5.20;3.30;;;18.80;68.20;;;;;;5068887;28;20533;-65
2022/05/02 13:40:21;;;;;;;5.20;3.67;;;18.70;68.70;;;;;;5069234;28;20453;-65
2022/05/02 13:42:53;;;;;;;8.53;3.83;;;18.60;67.70;;;;;;5068765;28;20947;-64
2022/05/02 13:45:30;;;;;;;5.10;3.83;;;18.60;68.60;;;;;;5068655;28;20485;-63
2022/05/02 13:48:13;;;;;;;8.30;3.70;;;18.60;68.00;;;;;;5068688;28;20481;-64
2022/05/02 13:50:46;;;;;;;5.97;4.10;;;18.60;69.10;;;;;;5069566;28;20456;-68
2022/05/02 13:53:25;;;;;;;6.57;3.70;;;18.60;68.70;;;;;;5072396;28;20929;-63
2022/05/02 13:55:59;;;;;;;7.00;4.30;;;18.70;67.90;;;;;;5072450;28;20456;-64